EGWC

DCAE Cosford Airport

Airport
ICAO code
EGWC
Summary
ICAO Region
EUR
ICAO Territory
Location

, England

Serving
Cosford
Elevation
272 ft
Coordinates
52° 38' 24" N , 2° 18' 20" W
Metar
EGWC 270950Z 19004KT 9999 -RA FEW030 SCT080 BKN100 02/02 Q1020 RMK BLU

Runways

Designator Length Width Surface Rops
6/24 1186 46 ASP No/No

Airport map

Aerial View

SKYbrary Partners:

Safety knowledge contributed by: